Flight Track Log - Related Links

Times and Time Zones

All times are in EDT time to prevent confusion due to time zone crossing. See the C-GTAF flight status page for this flight to view local times or setup timezone preferences in your user account.

Time Position Orientation Groundspeed Altitude Reporting Facility
EDT Latitude Longitude Course Direction KTS MPH feet Rate Location/Type
Fri 02:47:56 PM 50.0667 -96.9667 117° Southeast 130 150 3,000  Level Winnipeg Center
Fri 02:48:56 PM 50.0333 -96.9167 136° Southeast 130 150 4,100 1,100 Climbing Winnipeg Center
Fri 02:49:56 PM 50.0333 -96.8667 90° East 120 138 5,200 1,200 Climbing Winnipeg Center
Fri 02:50:56 PM 50.0333 -96.8167 90° East 120 138 6,500 900 Climbing Winnipeg Center
Fri 02:51:00 PM 50.0181 -96.6085 101° East  Level Estimated
Fri 02:51:56 PM 50.0167 -96.7500 111° Southeast 140 161 7,000  Level Winnipeg Center
Fri 02:52:00 PM 50.0088 -96.5386 102° East  Level FlightAware Approximate
Fri 02:52:56 PM 50.0167 -96.6833 90° East 180 207 7,000  Level Winnipeg Center
Fri 02:53:56 PM 50.0000 -96.6000 107° East 190 219 7,000  Level Winnipeg Center
Fri 02:54:56 PM 50.0000 -96.5167 90° East 190 219 7,000  Level Winnipeg Center
Fri 02:55:56 PM 49.9833 -96.4500 111° Southeast 190 219 7,000  Level Winnipeg Center
Fri 02:56:56 PM 49.9833 -96.3667 90° East 190 219 7,000  Level Winnipeg Center
Fri 02:57:56 PM 49.9833 -96.2833 90° East 180 207 7,000  Level Winnipeg Center
Fri 02:58:56 PM 49.9667 -96.2167 111° Southeast 190 219 7,000 50 Level Winnipeg Center
Fri 02:59:56 PM 49.9667 -96.1000 90° East 190 219 7,100  Climbing Winnipeg Center
Fri 03:00:56 PM 49.9500 -96.0500 117° Southeast 190 219 7,000  Descending Winnipeg Center
Fri 03:01:56 PM 49.9333 -95.9500 104° East 190 219 7,100  Climbing Winnipeg Center
Fri 03:02:56 PM 49.9333 -95.8667 90° East 190 219 7,000 -50 Descending Winnipeg Center
Fri 03:03:56 PM 49.9167 -95.8000 111° Southeast 190 219 7,000  Level Winnipeg Center
Fri 03:04:56 PM 49.9167 -95.7167 90° East 190 219 7,000  Level Winnipeg Center
Fri 03:05:56 PM 49.9000 -95.6333 107° East 190 219 7,000 50 Level Winnipeg Center
Fri 03:06:56 PM 49.9000 -95.5667 90° East 190 219 7,100  Climbing Winnipeg Center
Fri 03:07:56 PM 49.8833 -95.4833 107° East 190 219 7,000 -50 Descending Winnipeg Center
Fri 03:08:56 PM 49.8833 -95.3833 90° East 190 219 7,000  Level Winnipeg Center
Fri 03:09:56 PM 49.8667 -95.3000 107° East 190 219 7,000  Level Winnipeg Center
Fri 03:10:56 PM 49.8667 -95.2500 90° East 180 207 7,000  Level Winnipeg Center
Fri 03:11:56 PM 49.8667 -95.1500 90° East 180 207 7,000 -50 Level Winnipeg Center
Fri 03:12:56 PM 49.8500 -95.1000 117° Southeast 170 196 6,900 -300 Descending Winnipeg Center
Fri 03:13:56 PM 49.8500 -95.0167 90° East 180 207 6,400 -450 Descending Winnipeg Center
Fri 03:14:56 PM 49.8667 -94.9333 73° East 180 207 6,000 -200 Descending Winnipeg Center
Fri 03:15:56 PM 49.8667 -94.8667 90° East 180 207 6,000 -100 Level Winnipeg Center
Fri 03:16:56 PM 49.8500 -94.7833 107° East 170 196 5,800 -450 Descending Winnipeg Center
Fri 03:17:56 PM 49.8333 -94.7167 111° Southeast 180 207 5,100 -700 Descending Winnipeg Center
Fri 03:19:00 PM 49.8116 -94.6461 98° East  Level FlightAware Approximate
Fri 03:26:00 PM 49.7883 -94.3631 98° East  Level Estimated
Fri 03:27:00 PM 49.7883 -94.3631 98° East  Level Estimated
Fri 03:28:00 PM 49.7883 -94.3631 98° East  Level Estimated
Fri 03:29:00 PM 49.7883 -94.3631 98° East  Level Estimated
Fri 03:30:00 PM 49.7883 -94.3631 98° East  Level Estimated

Login

Don't have an account? Register now (free) for customized features, flight alerts, and more!